2020-07-13 - 21:19:00

SR: 0325 - SS: 1945

RWY: 25


OBSERVATION: n/a

RVR Mean 1 min: (Runway Visual Range)
A: P2000 - B: P2000 - C: P2000
RVR Mean 10 min:
A: P2000 - B: P2000 - C: P2000
WARNING: n/a
W25: 360-360(180-00kt) 00kt-01kt
W07: 130-210(140-01kt) 00kt-01kt
OTHER: n/a

QFE: (tatsächlicher Luftdruck) 1013.0 hPa = 29.91 inHg
QNH:(Luftdruck auf Meereshöhe) 1018.8 hPa = 30.06 inHg
Temperatur: 15.6 °C
Dew point(Taupunkt): 12.4 °C

METAR:  00695 SADL31 EDDG 132050 METAR EDDG 132050Z VRB01KT CAVOK 16/12 Q1019 NOSIG= 
METAR (aus weather.noaa.gov):
2020/07/13 20:50 EDDG 132050Z VRB01KT CAVOK 16/12 Q1019 NOSIG 0

TAF (aus weather.noaa.gov):
2020/07/13 18:27 TAF EDDG 131700Z 1318/1418 VRB02KT CAVOK BECMG 1407/1409 25006KT PROB30 TEMPO 1412/1418 RA 0
NOWCAST
038
FODL44 EDDG 132100
FODL44 EDDG 2007132105
# Nowcasting EDDG 13.07.2020 21:05 UTC
Parameter/Stunde22230001020304
Windrichtung030030110200200190190
Windgeschwindigkeit1111122
Böen--------------
Lufttemperatur15141312121212
Taupunkt11111111111011
Belagstemperatur12111010 9 911
Wetter-vorherrschend--------------
QNH1018101810181017101610161015
Wind in 5000 ft230/10230/15230/15220/15220/15230/15220/15
Wind in 3000 ft210/05220/05210/05220/10210/10220/10220/10
Wind in 2000 ft220/05200/05200/05200/05210/10230/10240/10
Wind in 1000 ft290/05210/05180/05190/05220/05240/05250/10